createdAt,value
2022-10-18T00:00:53.435Z,102054.88
2022-10-18T00:03:56.154Z,102056.22
2022-10-18T00:06:59.183Z,102053.13
2022-10-18T00:10:01.754Z,102062.81
2022-10-18T00:13:04.552Z,102058.38
2022-10-18T00:16:16.905Z,102065.03
2022-10-18T00:19:19.582Z,102076.06
2022-10-18T00:22:22.277Z,102081.06
2022-10-18T00:25:24.941Z,102074.41
2022-10-18T00:28:27.538Z,102072.47
2022-10-18T00:31:33.294Z,102076.06
2022-10-18T00:34:36.028Z,102087.41
2022-10-18T00:37:38.578Z,102086.88
2022-10-18T00:40:41.315Z,102084.69
2022-10-18T00:43:55.493Z,102081.09
2022-10-18T00:47:02.999Z,102083.97
2022-10-18T00:50:08.986Z,102088.97
2022-10-18T00:53:17.338Z,102094.56
2022-10-18T00:56:20.083Z,102083.56
2022-10-18T00:59:23.485Z,102073.88
2022-10-18T01:02:28.297Z,102088.06
2022-10-18T01:05:31.303Z,102085.59
2022-10-18T01:08:46.621Z,102087.84
2022-10-18T01:12:05.371Z,102086.47
2022-10-18T01:15:15.125Z,102093.66
2022-10-18T01:18:33.382Z,102088.19
2022-10-18T01:21:46.065Z,102100.41
2022-10-18T01:28:21.308Z,102082.66
2022-10-18T01:31:31.419Z,102075.16
2022-10-18T01:34:38.770Z,102071.28
2022-10-18T01:37:44.458Z,102073.50
2022-10-18T01:40:50.185Z,102086.31
2022-10-18T01:43:57.197Z,102095.78
2022-10-18T01:47:01.454Z,102088.81
2022-10-18T01:50:06.846Z,102093.78
2022-10-18T01:53:26.563Z,102080.53
2022-10-18T01:56:36.638Z,102088.81
2022-10-18T01:59:51.682Z,102086.31
2022-10-18T02:03:02.922Z,102097.06
2022-10-18T02:06:10.639Z,102091.25
2022-10-18T02:09:19.972Z,102095.13
2022-10-18T02:12:24.243Z,102084.31
2022-10-18T02:15:34.036Z,102088.75
2022-10-18T02:18:42.656Z,102079.59
2022-10-18T02:21:48.719Z,102078.22
2022-10-18T02:24:55.577Z,102080.72
2022-10-18T02:27:58.550Z,102071.56
2022-10-18T02:31:07.980Z,102082.09
2022-10-18T02:34:17.923Z,102089.56
2022-10-18T02:37:21.598Z,102089.00
2022-10-18T02:40:25.535Z,102086.25
2022-10-18T02:43:28.251Z,102096.75
2022-10-18T02:46:30.967Z,102101.22
2022-10-18T02:49:34.897Z,102101.44
2022-10-18T02:52:37.602Z,102103.66
2022-10-18T02:55:40.167Z,102093.41
2022-10-18T02:58:42.801Z,102111.44
2022-10-18T03:01:45.535Z,102092.56
2022-10-18T03:04:49.454Z,102108.38
2022-10-18T03:07:52.164Z,102105.88
2022-10-18T03:10:54.703Z,102116.41
2022-10-18T03:13:57.393Z,102118.34
2022-10-18T03:17:00.128Z,102128.06
2022-10-18T03:20:04.265Z,102125.53
2022-10-18T03:23:07.337Z,102130.53
2022-10-18T03:26:09.928Z,102132.47
2022-10-18T03:29:12.743Z,102130.53
2022-10-18T03:32:15.299Z,102126.59
2022-10-18T03:35:19.418Z,102124.72
2022-10-18T03:38:21.978Z,102128.59
2022-10-18T03:41:24.521Z,102125.53
2022-10-18T03:44:27.102Z,102113.63
2022-10-18T03:47:29.812Z,102116.38
2022-10-18T03:50:33.776Z,102116.09
2022-10-18T03:53:36.462Z,102124.38
2022-10-18T03:56:39.028Z,102136.56
2022-10-18T03:59:41.714Z,102139.31
2022-10-18T04:02:44.420Z,102133.22
2022-10-18T04:05:49.294Z,102139.88
2022-10-18T04:08:51.954Z,102142.63
2022-10-18T04:11:54.502Z,102137.63
2022-10-18T04:14:57.185Z,102134.22
2022-10-18T04:17:59.849Z,102129.53
2022-10-18T04:21:03.840Z,102127.59
2022-10-18T04:24:07.184Z,102125.66
2022-10-18T04:27:09.734Z,102124.50
2022-10-18T04:30:12.677Z,102122.78
2022-10-18T04:33:15.387Z,102130.28
2022-10-18T04:36:19.328Z,102127.56
2022-10-18T04:39:22.089Z,102119.19
2022-10-18T04:42:25.384Z,102126.94
2022-10-18T04:45:28.166Z,102118.59
2022-10-18T04:48:30.825Z,102119.41
2022-10-18T04:51:34.738Z,102116.38
2022-10-18T04:54:37.462Z,102108.34
2022-10-18T04:57:40.046Z,102117.75
2022-10-18T05:00:43.584Z,102125.50
2022-10-18T05:03:46.320Z,102116.63
2022-10-18T05:06:50.342Z,102118.78
2022-10-18T05:09:53.007Z,102109.09
2022-10-18T05:12:55.557Z,102105.47
2022-10-18T05:15:59.519Z,102098.84
2022-10-18T05:19:02.124Z,102098.81
2022-10-18T05:22:06.006Z,102091.50
2022-10-18T05:25:09.967Z,102097.56
2022-10-18T05:28:34.596Z,102092.78
2022-10-18T05:31:35.562Z,102090.41
2022-10-18T05:34:38.140Z,102102.53
2022-10-18T05:37:42.100Z,102097.53
2022-10-18T05:40:44.675Z,102111.16
2022-10-18T05:43:47.228Z,102106.47
2022-10-18T05:46:49.905Z,102109.81
2022-10-18T05:49:52.717Z,102113.50
2022-10-18T05:53:06.949Z,102109.06
2022-10-18T05:56:15.538Z,102117.38
2022-10-18T05:59:18.106Z,102105.78
2022-10-18T06:02:20.765Z,102113.53
2022-10-18T06:05:23.461Z,102099.44
2022-10-18T06:08:27.398Z,102094.47
2022-10-18T06:11:31.356Z,102093.06
2022-10-18T06:14:34.158Z,102091.97
2022-10-18T06:17:36.987Z,102092.56
2022-10-18T06:20:39.927Z,102096.41
2022-10-18T06:23:43.923Z,102100.88
2022-10-18T06:26:46.616Z,102086.69
2022-10-18T06:29:49.166Z,102084.44
2022-10-18T06:32:51.890Z,102084.75
2022-10-18T06:35:59.209Z,102094.72
2022-10-18T06:39:03.179Z,102092.50
2022-10-18T06:42:05.942Z,102086.13
2022-10-18T06:45:09.828Z,102082.78
2022-10-18T06:48:12.556Z,102086.38
2022-10-18T06:51:15.864Z,102090.00
2022-10-18T06:54:19.894Z,102108.56
2022-10-18T06:57:22.875Z,102103.63
2022-10-18T07:00:25.432Z,102113.34
2022-10-18T07:03:28.114Z,102114.19
2022-10-18T07:06:30.838Z,102115.59
2022-10-18T07:09:34.900Z,102115.59
2022-10-18T07:12:37.727Z,102124.16
2022-10-18T07:15:40.439Z,102135.28
2022-10-18T07:18:44.435Z,102148.56
2022-10-18T07:21:47.132Z,102157.16
2022-10-18T07:24:51.050Z,102171.03
2022-10-18T07:27:53.817Z,102173.53
2022-10-18T07:30:56.533Z,102179.13
2022-10-18T07:33:59.265Z,102189.69
2022-10-18T07:37:02.747Z,102174.72
2022-10-18T07:40:07.929Z,102179.97
2022-10-18T07:43:12.316Z,102184.94
2022-10-18T07:46:16.345Z,102179.66
2022-10-18T07:49:19.116Z,102188.16
2022-10-18T07:52:21.690Z,102177.25
2022-10-18T07:55:25.708Z,102175.25
2022-10-18T07:58:28.633Z,102176.97
2022-10-18T08:01:31.747Z,102168.16
2022-10-18T08:04:34.359Z,102172.59
2022-10-18T08:07:36.988Z,102168.78
2022-10-18T08:10:41.548Z,102161.84
2022-10-18T08:13:45.085Z,102157.31
2022-10-18T08:16:47.625Z,102152.63
2022-10-18T08:20:04.734Z,102150.13
2022-10-18T08:23:13.554Z,102156.50
2022-10-18T08:26:20.039Z,102146.00
2022-10-18T08:29:25.835Z,102154.63
2022-10-18T08:32:30.973Z,102159.63
2022-10-18T08:35:33.913Z,102155.75
2022-10-18T08:38:38.203Z,102162.97
2022-10-18T08:42:10.525Z,102160.47
2022-10-18T08:45:40.883Z,102166.81
2022-10-18T08:48:41.613Z,102164.88
2022-10-18T08:51:47.454Z,102167.94
2022-10-18T08:55:00.664Z,102169.63
2022-10-18T08:58:14.162Z,102177.31
2022-10-18T09:01:29.714Z,102175.31
2022-10-18T09:04:43.187Z,102175.38
2022-10-18T09:08:09.530Z,102171.53
2022-10-18T09:11:27.815Z,102158.81
2022-10-18T09:15:13.784Z,102159.69
2022-10-18T09:18:45.312Z,102159.63
2022-10-18T09:21:53.265Z,102158.22
2022-10-18T09:25:07.111Z,102157.97
2022-10-18T09:28:18.134Z,102167.69
2022-10-18T09:31:29.380Z,102164.59
2022-10-18T09:34:39.435Z,102160.34
2022-10-18T09:37:44.327Z,102156.56
2022-10-18T09:40:53.553Z,102159.38
2022-10-18T09:44:00.056Z,102155.84
2022-10-18T09:47:12.292Z,102163.03
2022-10-18T09:50:26.416Z,102159.44
2022-10-18T09:53:37.587Z,102172.91
2022-10-18T09:56:46.197Z,102160.69
2022-10-18T09:59:50.299Z,102157.16
2022-10-18T10:02:55.853Z,102157.13
2022-10-18T10:06:15.764Z,102156.88
2022-10-18T10:09:22.514Z,102161.31
2022-10-18T10:12:31.338Z,102161.03
2022-10-18T10:15:40.516Z,102164.06
2022-10-18T10:18:54.437Z,102157.78
2022-10-18T10:22:03.055Z,102161.94
2022-10-18T10:25:07.578Z,102150.28
2022-10-18T10:28:16.703Z,102152.81
2022-10-18T10:31:27.717Z,102148.09
2022-10-18T10:34:31.740Z,102143.13
2022-10-18T10:37:36.968Z,102147.00
2022-10-18T10:40:46.840Z,102136.78
2022-10-18T10:43:50.652Z,102128.44
2022-10-18T10:46:54.959Z,102125.13
2022-10-18T10:49:59.140Z,102136.47
2022-10-18T10:53:02.275Z,102130.94
2022-10-18T10:56:06.923Z,102126.22
2022-10-18T10:59:14.515Z,102129.00
2022-10-18T11:02:23.616Z,102120.44
2022-10-18T11:05:29.734Z,102117.38
2022-10-18T11:08:39.320Z,102118.50
2022-10-18T11:11:49.941Z,102120.69
2022-10-18T11:15:00.490Z,102124.56
2022-10-18T11:18:14.394Z,102116.03
2022-10-18T11:21:23.175Z,102134.00
2022-10-18T11:24:26.896Z,102131.75
2022-10-18T11:27:35.998Z,102127.06
2022-10-18T11:30:51.670Z,102119.63
2022-10-18T11:34:18.306Z,102108.09
2022-10-18T11:37:41.695Z,102100.38
2022-10-18T11:41:00.784Z,102104.81
2022-10-18T11:44:05.087Z,102100.97
2022-10-18T11:47:16.388Z,102099.38
2022-10-18T11:50:29.593Z,102097.19
2022-10-18T11:53:38.116Z,102100.72
2022-10-18T11:56:48.504Z,102094.38
2022-10-18T12:00:02.830Z,102089.13
2022-10-18T12:03:33.170Z,102089.47
2022-10-18T12:06:38.686Z,102088.31
2022-10-18T12:09:45.459Z,102095.50
2022-10-18T12:12:52.700Z,102087.19
2022-10-18T12:15:56.627Z,102095.50
2022-10-18T12:19:01.152Z,102091.28
2022-10-18T12:22:14.767Z,102092.66
2022-10-18T12:25:20.169Z,102089.94
2022-10-18T12:28:38.430Z,102078.06
2022-10-18T12:31:46.231Z,102081.22
2022-10-18T12:34:52.179Z,102087.59
2022-10-18T12:38:07.181Z,102074.53
2022-10-18T12:41:20.651Z,102075.91
2022-10-18T12:44:28.767Z,102072.13
2022-10-18T12:47:32.298Z,102071.53
2022-10-18T12:50:37.871Z,102073.44
2022-10-18T12:53:41.979Z,102073.47
2022-10-18T12:56:47.722Z,102082.88
2022-10-18T12:59:50.883Z,102079.53
2022-10-18T13:03:41.029Z,102073.44
2022-10-18T13:07:19.701Z,102079.03
2022-10-18T13:10:40.460Z,102071.84
2022-10-18T13:13:55.687Z,102075.44
2022-10-18T13:17:05.633Z,102073.50
2022-10-18T13:20:27.346Z,102065.06
2022-10-18T13:23:43.628Z,102070.00
2022-10-18T13:27:18.019Z,102070.34
2022-10-18T13:30:32.528Z,102071.44
2022-10-18T13:33:38.616Z,102068.41
2022-10-18T13:36:43.552Z,102069.50
2022-10-18T13:39:46.290Z,102061.78
2022-10-18T13:42:48.886Z,102068.22
2022-10-18T13:45:55.886Z,102063.53
2022-10-18T13:49:01.075Z,102069.09
2022-10-18T13:52:16.674Z,102068.78
2022-10-18T13:55:37.892Z,102068.69
2022-10-18T13:59:05.717Z,102079.44
2022-10-18T14:02:50.489Z,102081.94
2022-10-18T14:05:58.022Z,102086.44
2022-10-18T14:09:13.910Z,102090.94
2022-10-18T14:12:33.540Z,102097.53
2022-10-18T14:15:40.359Z,102096.06
2022-10-18T14:18:44.158Z,102096.34
2022-10-18T14:21:54.977Z,102103.56
2022-10-18T14:25:00.159Z,102097.19
2022-10-18T14:28:13.447Z,102100.41
2022-10-18T14:31:19.233Z,102104.09
2022-10-18T14:34:22.694Z,102103.53
2022-10-18T14:37:29.997Z,102104.88
2022-10-18T14:40:37.990Z,102099.91
2022-10-18T14:43:40.693Z,102109.56
2022-10-18T14:46:44.889Z,102105.50
2022-10-18T14:49:48.442Z,102108.50
2022-10-18T14:52:51.730Z,102118.91
2022-10-18T14:55:57.373Z,102116.41
2022-10-18T14:59:03.829Z,102114.34
2022-10-18T15:02:14.889Z,102110.69
2022-10-18T15:05:22.314Z,102104.28
2022-10-18T15:08:27.962Z,102103.09
2022-10-18T15:11:33.803Z,102118.03
2022-10-18T15:14:37.922Z,102114.59
2022-10-18T15:17:41.841Z,102108.94
2022-10-18T15:20:44.523Z,102111.56
2022-10-18T15:23:47.125Z,102109.91
2022-10-18T15:26:52.890Z,102108.81
2022-10-18T15:29:55.939Z,102110.44
2022-10-18T15:33:00.594Z,102110.97
2022-10-18T15:36:11.077Z,102105.16
2022-10-18T15:39:17.720Z,102111.78
2022-10-18T15:42:38.643Z,102108.38
2022-10-18T15:49:20.035Z,102101.31
2022-10-18T15:52:40.726Z,102104.56
2022-10-18T15:55:52.194Z,102100.47
2022-10-18T15:58:57.858Z,102105.13
2022-10-18T16:02:00.794Z,102108.66
2022-10-18T16:05:04.060Z,102099.72
2022-10-18T16:08:06.903Z,102102.06
2022-10-18T16:11:14.802Z,102107.53
2022-10-18T16:14:19.077Z,102113.75
2022-10-18T16:17:21.649Z,102117.75
2022-10-18T16:20:27.264Z,102118.19
2022-10-18T16:23:29.844Z,102133.03
2022-10-18T16:26:32.575Z,102130.41
2022-10-18T16:29:36.638Z,102132.75
2022-10-18T16:32:40.372Z,102137.63
2022-10-18T16:35:42.931Z,102135.00
2022-10-18T16:38:46.428Z,102142.03
2022-10-18T16:41:49.473Z,102136.09
2022-10-18T16:44:54.889Z,102140.91
2022-10-18T16:47:57.437Z,102137.75
2022-10-18T16:51:00.550Z,102149.03
2022-10-18T16:54:07.755Z,102147.25
2022-10-18T16:57:12.703Z,102145.47
2022-10-18T17:00:20.718Z,102148.97
2022-10-18T17:03:24.650Z,102151.03
2022-10-18T17:06:29.355Z,102148.38
2022-10-18T17:09:34.735Z,102134.00
2022-10-18T17:12:37.321Z,102138.47
2022-10-18T17:15:42.432Z,102149.41
2022-10-18T17:18:45.201Z,102152.06
2022-10-18T17:21:47.986Z,102144.16
2022-10-18T17:24:50.861Z,102143.22
2022-10-18T17:27:53.447Z,102151.38
2022-10-18T17:30:57.613Z,102158.47
2022-10-18T17:34:01.814Z,102159.41
2022-10-18T17:37:05.519Z,102168.19
2022-10-18T17:40:09.834Z,102158.72
2022-10-18T17:43:14.731Z,102166.41
2022-10-18T17:46:19.765Z,102161.34
2022-10-18T17:49:22.893Z,102164.59
2022-10-18T17:52:25.838Z,102164.22
2022-10-18T17:55:30.023Z,102166.63
2022-10-18T17:58:33.312Z,102170.09
2022-10-18T18:01:37.683Z,102171.91
2022-10-18T18:04:40.408Z,102181.72
2022-10-18T18:07:44.257Z,102181.72
2022-10-18T18:10:46.877Z,102179.69
2022-10-18T18:13:49.717Z,102188.19
2022-10-18T18:16:54.240Z,102188.66
2022-10-18T18:19:56.823Z,102197.16
2022-10-18T18:22:59.465Z,102191.66
2022-10-18T18:26:02.354Z,102191.66
2022-10-18T18:29:08.524Z,102194.41
2022-10-18T18:32:13.215Z,102202.09
2022-10-18T18:35:16.215Z,102196.19
2022-10-18T18:38:19.152Z,102200.25
2022-10-18T18:41:23.376Z,102192.00
2022-10-18T18:44:26.291Z,102196.91
2022-10-18T18:47:31.050Z,102193.41
2022-10-18T18:50:37.043Z,102202.38
2022-10-18T18:53:41.199Z,102192.06
2022-10-18T18:56:44.191Z,102198.88
2022-10-18T18:59:47.050Z,102197.06
2022-10-18T19:02:51.173Z,102190.81
2022-10-18T19:06:03.624Z,102192.34
2022-10-18T19:09:12.316Z,102198.81
2022-10-18T19:12:19.101Z,102192.78
2022-10-18T19:15:24.177Z,102198.38
2022-10-18T19:18:28.228Z,102193.94
2022-10-18T19:21:32.933Z,102200.50
2022-10-18T19:24:35.546Z,102198.22
2022-10-18T19:27:38.356Z,102202.53
2022-10-18T19:30:40.932Z,102207.03
2022-10-18T19:33:48.403Z,102212.63
2022-10-18T19:36:58.809Z,102198.50
2022-10-18T19:40:01.672Z,102196.19
2022-10-18T19:43:04.388Z,102207.91
2022-10-18T19:46:07.473Z,102206.22
2022-10-18T19:49:12.123Z,102209.44
2022-10-18T19:52:14.901Z,102217.28
2022-10-18T19:55:18.953Z,102219.66
2022-10-18T19:58:21.497Z,102222.88
2022-10-18T20:01:24.356Z,102223.72
2022-10-18T20:04:34.209Z,102229.50
2022-10-18T20:07:37.444Z,102229.97
2022-10-18T20:10:40.476Z,102226.84
2022-10-18T20:13:43.821Z,102226.47
2022-10-18T20:16:47.001Z,102244.09
2022-10-18T20:19:51.041Z,102245.63
2022-10-18T20:22:53.624Z,102245.63
2022-10-18T20:25:58.178Z,102246.28
2022-10-18T20:29:00.839Z,102237.66
2022-10-18T20:32:03.661Z,102243.38
2022-10-18T20:35:11.941Z,102244.44
2022-10-18T20:38:14.689Z,102247.66
2022-10-18T20:41:25.182Z,102258.25
2022-10-18T20:44:30.659Z,102253.38
2022-10-18T20:47:33.944Z,102246.81
2022-10-18T20:50:41.750Z,102251.47
2022-10-18T20:53:45.051Z,102246.19
2022-10-18T20:56:47.715Z,102252.97
2022-10-18T20:59:50.470Z,102244.13
2022-10-18T21:02:55.802Z,102249.38
2022-10-18T21:06:02.362Z,102249.63
2022-10-18T21:09:08.760Z,102246.63
2022-10-18T21:15:20.113Z,102247.03
2022-10-18T21:18:26.139Z,102248.31
2022-10-18T21:21:30.853Z,102244.50
2022-10-18T21:24:33.979Z,102250.63
2022-10-18T21:27:36.840Z,102254.41
2022-10-18T21:30:45.461Z,102240.13
2022-10-18T21:33:48.601Z,102244.97
2022-10-18T21:36:52.686Z,102244.50
2022-10-18T21:39:55.214Z,102239.41
2022-10-18T21:42:58.023Z,102236.22
2022-10-18T21:46:01.378Z,102238.72
2022-10-18T21:49:04.234Z,102226.44
2022-10-18T21:52:08.288Z,102233.84
2022-10-18T21:55:11.069Z,102234.69
2022-10-18T21:58:13.831Z,102235.28
2022-10-18T22:01:18.463Z,102245.00
2022-10-18T22:04:22.882Z,102246.47
2022-10-18T22:07:26.949Z,102247.69
2022-10-18T22:10:29.527Z,102240.13
2022-10-18T22:13:32.439Z,102234.41
2022-10-18T22:16:35.224Z,102236.63
2022-10-18T22:19:37.785Z,102228.44
2022-10-18T22:22:41.883Z,102223.31
2022-10-18T22:25:44.540Z,102218.91
2022-10-18T22:28:47.825Z,102217.59
2022-10-18T22:31:51.813Z,102209.28
2022-10-18T22:34:54.392Z,102214.41
2022-10-18T22:37:58.483Z,102212.72
2022-10-18T22:41:04.951Z,102213.16
2022-10-18T22:44:08.187Z,102206.81
2022-10-18T22:47:10.860Z,102204.31
2022-10-18T22:50:13.413Z,102198.91
2022-10-18T22:53:17.648Z,102201.88
2022-10-18T22:56:22.045Z,102194.84
2022-10-18T22:59:24.922Z,102196.75
2022-10-18T23:02:27.845Z,102206.06
2022-10-18T23:05:30.509Z,102202.88
2022-10-18T23:08:34.635Z,102197.91
2022-10-18T23:11:38.379Z,102196.25
2022-10-18T23:14:41.190Z,102202.47
2022-10-18T23:17:43.891Z,102198.91
2022-10-18T23:20:46.704Z,102200.81
2022-10-18T23:23:51.722Z,102201.19
2022-10-18T23:26:54.429Z,102194.41
2022-10-18T23:29:57.305Z,102196.53
2022-10-18T23:33:00.131Z,102208.28
2022-10-18T23:36:02.839Z,102194.31
2022-10-18T23:39:07.282Z,102194.53
2022-10-18T23:42:09.869Z,102198.97
2022-10-18T23:45:12.580Z,102196.00
2022-10-18T23:48:15.383Z,102201.34
2022-10-18T23:51:18.842Z,102190.13
2022-10-18T23:54:23.166Z,102200.19
2022-10-18T23:57:25.736Z,102209.59
